Terminal Aerodrome Forecast
Issued by NWS

Home | Current Version | Previous Version | Text Only | Print | Product List | Glossary On
Versions: 1 2 3 4 5 6 7 8 9 10 11 12 13 14 15
000
FTUS45 KABQ 221700
TAFSAF
TAF
KSAF 221739Z 2218/2318 27012G20KT P6SM SCT050 SCT090
     FM221900 29015G25KT P6SM SCT040 BKN080
     FM222100 30020G30KT P6SM VCSH BKN040 BKN070
     FM230100 33015G22KT P6SM VCSH BKN030
     FM230600 36013G22KT P6SM SCT025 BKN050
     FM231500 34013KT P6SM FEW025 SCT050=

USA.gov is the U.S. government's official web portal to all federal, state and local government web resources and services.